Aérodrome :
LOGIN :

S'inscrire | Disclaimer

   EN    FR    IT 

 










Légende :    VFR   VFR Marginal   IFR   IFR Intensif   IFR Très Intensif
Visi : 
Plafond : 
>= 8 km
>= 3000ft
5 à 8 km
1000 à 3000 ft
1500m à 5 km
500 à 1000 ft
800 à 1500m
200 à 500 ft
< 800m
< 200 ft
Symboles :   Orages  Brouillard  Fortes neiges  Fortes précipitations  Vent > 20 kt
SIGMETs :   Divers  Orages  Givrage  Turbulence  Onde Orograph.  Cendres Volcan.







- Altitude de l'aérodrome : 622 ft
- Code IATA : BRS
- Voir les cartes d'approche


EGGD - Bristol Int.

DERNIER METAR :
  • 161650Z AUTO 29008KT 9999 NCD 22/10 Q1018

METARs EXPIRÉS :
  • 161620Z AUTO 30008KT 9999 NCD 23/09 Q1018
  • 161550Z AUTO 28010KT 240V310 9999 NCD 23/09 Q1018
  • 161520Z 28009KT 9999 FEW040 24/11 Q1018
  • 161450Z AUTO 32008KT 9999 BKN039 23/12 Q1018
  • 161420Z AUTO 29007KT 240V350 9999 SCT041 23/13 Q1019
  • 161350Z AUTO 26006KT 170V340 9999 BKN045 24/12 Q1019

TAF TAF EGGD
Valide du 16 à 12h jusqu'au 17 à 12h UTC


161055Z 1612/1712 25005KT 9999 SCT025
BECMG 1701/1704 6000 BKN006
PROB40
TEMPO 1702/1706 4000 BR BKN002
BECMG 1704/1707 9999 FEW010
ATIS : +44 1275 473 666
Pas de NOTAMs connus pour ce terrain.



MET'MAP, la Météo Aéronautique d'un coup d'oeil ! - Copyright ORBIFLY Décembre 2007 - Disclaimer

ORBIFLY MET'MAP TEAM :

Programmation & Développement : Alexandra Zaïnal
Conception & Développement : Baudouin d'Aumeries
Co-Programmation & Développement : Marc-Olivier Méhu
Soutien technique & logistique : Manuel Goepfert

Contact : metmap@orbifly.com




SOURCES & CREDITS :

   NOAA